createdAt,value
2023-04-25T00:01:58.828Z,6.43
2023-04-25T00:04:28.130Z,7.95
2023-04-25T00:06:56.981Z,11.10
2023-04-25T00:09:25.119Z,12.02
2023-04-25T00:11:53.510Z,15.35
2023-04-25T00:14:21.670Z,15.85
2023-04-25T00:16:52.751Z,23.02
2023-04-25T00:19:22.226Z,19.08
2023-04-25T00:21:50.937Z,21.02
2023-04-25T00:24:19.284Z,22.05
2023-04-25T00:26:47.780Z,17.88
2023-04-25T00:29:16.174Z,21.92
2023-04-25T00:31:44.619Z,17.38
2023-04-25T00:34:12.895Z,18.23
2023-04-25T00:36:42.653Z,15.98
2023-04-25T00:39:10.966Z,18.35
2023-04-25T00:41:39.550Z,22.40
2023-04-25T00:44:08.418Z,18.75
2023-04-25T00:46:37.923Z,24.52
2023-04-25T00:49:06.178Z,25.95
2023-04-25T00:51:35.372Z,25.48
2023-04-25T00:54:05.122Z,25.70
2023-04-25T00:56:33.542Z,24.50
2023-04-25T00:59:01.633Z,25.70
2023-04-25T01:04:19.221Z,30.67
2023-04-25T01:06:47.681Z,26.25
2023-04-25T01:09:17.279Z,26.63
2023-04-25T01:11:45.821Z,26.10
2023-04-25T01:14:13.929Z,23.98
2023-04-25T01:16:42.500Z,29.67
2023-04-25T01:19:13.137Z,26.75
2023-04-25T01:21:42.917Z,25.83
2023-04-25T01:24:11.165Z,27.25
2023-04-25T01:26:40.932Z,25.67
2023-04-25T01:29:09.804Z,23.17
2023-04-25T01:31:38.928Z,26.98
2023-04-25T01:34:07.087Z,27.23
2023-04-25T01:36:36.196Z,28.52
2023-04-25T01:39:05.931Z,25.17
2023-04-25T01:41:35.719Z,26.95
2023-04-25T01:44:04.234Z,28.13
2023-04-25T01:46:32.744Z,27.70
2023-04-25T01:49:01.083Z,28.58
2023-04-25T01:51:29.521Z,20.98
2023-04-25T01:53:58.419Z,24.10
2023-04-25T01:56:32.563Z,23.13
2023-04-25T01:59:01.052Z,28.08
2023-04-25T02:01:29.619Z,24.27
2023-04-25T02:03:58.327Z,23.58
2023-04-25T02:06:26.993Z,23.58
2023-04-25T02:08:55.156Z,29.17
2023-04-25T02:11:23.562Z,24.50
2023-04-25T02:13:53.218Z,24.92
2023-04-25T02:16:21.848Z,28.90
2023-04-25T02:18:50.154Z,34.35
2023-04-25T02:21:18.684Z,29.58
2023-04-25T02:23:49.935Z,37.85
2023-04-25T02:26:18.535Z,37.17
2023-04-25T02:28:46.692Z,42.92
2023-04-25T02:31:16.422Z,48.42
2023-04-25T02:33:44.774Z,51.97
2023-04-25T02:36:13.167Z,42.45
2023-04-25T02:38:41.379Z,41.53
2023-04-25T02:41:09.832Z,39.72
2023-04-25T02:43:37.931Z,42.70
2023-04-25T02:46:06.422Z,41.80
2023-04-25T02:48:36.015Z,39.85
2023-04-25T02:51:04.586Z,45.50
2023-04-25T02:53:32.750Z,43.85
2023-04-25T02:56:01.410Z,48.40
2023-04-25T02:58:29.713Z,47.80
2023-04-25T03:00:58.113Z,52.67
2023-04-25T03:03:26.724Z,42.72
2023-04-25T03:05:56.558Z,48.47
2023-04-25T03:08:26.134Z,38.70
2023-04-25T03:10:56.504Z,45.92
2023-04-25T03:13:24.651Z,42.38
2023-04-25T03:15:53.038Z,39.45
2023-04-25T03:18:21.313Z,40.03
2023-04-25T03:20:49.734Z,35.10
2023-04-25T03:23:19.274Z,38.25
2023-04-25T03:25:47.822Z,39.33
2023-04-25T03:28:16.243Z,40.70
2023-04-25T03:30:44.624Z,44.67
2023-04-25T03:33:12.996Z,38.78
2023-04-25T03:35:41.357Z,41.80
2023-04-25T03:38:09.626Z,40.50
2023-04-25T03:40:39.400Z,39.60
2023-04-25T03:43:08.021Z,43.67
2023-04-25T03:45:36.559Z,39.88
2023-04-25T03:48:05.216Z,42.00
2023-04-25T03:50:35.925Z,38.15
2023-04-25T03:53:04.025Z,28.73
2023-04-25T03:55:32.766Z,30.50
2023-04-25T03:58:02.470Z,31.17
2023-04-25T04:00:31.200Z,27.27
2023-04-25T04:02:59.515Z,24.13
2023-04-25T04:05:28.360Z,23.42
2023-04-25T04:07:56.599Z,27.10
2023-04-25T04:10:25.162Z,29.88
2023-04-25T04:12:53.599Z,26.35
2023-04-25T04:15:23.589Z,26.05
2023-04-25T04:17:51.732Z,21.67
2023-04-25T04:20:20.135Z,30.60
2023-04-25T04:22:49.116Z,37.05
2023-04-25T04:25:17.592Z,24.10
2023-04-25T04:27:47.012Z,29.33
2023-04-25T04:30:15.882Z,27.02
2023-04-25T04:32:45.828Z,28.33
2023-04-25T04:35:14.568Z,27.02
2023-04-25T04:37:42.892Z,22.90
2023-04-25T04:40:12.122Z,27.42
2023-04-25T04:42:40.241Z,23.50
2023-04-25T04:45:09.519Z,21.13
2023-04-25T04:47:37.881Z,22.92
2023-04-25T04:50:09.535Z,21.85
2023-04-25T04:52:38.398Z,19.60
2023-04-25T04:55:08.706Z,21.00
2023-04-25T04:57:37.063Z,23.27
2023-04-25T05:00:07.933Z,18.48
2023-04-25T05:02:36.375Z,25.80
2023-04-25T05:05:05.339Z,18.60
2023-04-25T05:07:35.049Z,20.88
2023-04-25T05:10:03.485Z,20.90
2023-04-25T05:12:31.733Z,23.35
2023-04-25T05:15:00.207Z,20.15
2023-04-25T05:17:28.310Z,26.45
2023-04-25T05:19:56.716Z,22.83
2023-04-25T05:22:25.064Z,20.48
2023-04-25T05:24:56.091Z,24.63
2023-04-25T05:27:24.438Z,23.42
2023-04-25T05:29:53.754Z,23.55
2023-04-25T05:32:22.153Z,21.63
2023-04-25T05:34:51.004Z,20.00
2023-04-25T05:37:19.431Z,23.30
2023-04-25T05:39:47.913Z,23.42
2023-04-25T05:42:17.450Z,20.58
2023-04-25T05:44:46.322Z,21.90
2023-04-25T05:47:14.540Z,19.80
2023-04-25T05:49:42.888Z,23.38
2023-04-25T05:52:11.005Z,22.88
2023-04-25T05:54:39.344Z,16.00
2023-04-25T05:57:07.625Z,20.77
2023-04-25T05:59:37.396Z,21.33
2023-04-25T06:02:05.766Z,19.63
2023-04-25T06:04:34.613Z,20.48
2023-04-25T06:07:02.978Z,15.35
2023-04-25T06:09:31.442Z,20.52
2023-04-25T06:11:59.560Z,16.25
2023-04-25T06:14:29.673Z,16.83
2023-04-25T06:16:59.557Z,20.88
2023-04-25T06:19:27.966Z,17.08
2023-04-25T06:21:56.143Z,20.27
2023-04-25T06:24:24.648Z,20.10
2023-04-25T06:26:53.657Z,39.53
2023-04-25T06:29:22.437Z,21.00
2023-04-25T06:31:51.281Z,14.60
2023-04-25T06:34:21.620Z,22.25
2023-04-25T06:36:49.839Z,18.83
2023-04-25T06:39:18.428Z,18.17
2023-04-25T06:41:46.748Z,16.70
2023-04-25T06:44:15.152Z,23.20
2023-04-25T06:46:43.363Z,18.40
2023-04-25T06:49:11.835Z,22.88
2023-04-25T06:51:41.317Z,23.02
2023-04-25T06:54:09.814Z,22.70
2023-04-25T06:56:38.078Z,21.85
2023-04-25T06:59:06.447Z,21.20
2023-04-25T07:01:34.611Z,18.77
2023-04-25T07:04:03.249Z,21.63
2023-04-25T07:06:32.046Z,17.75
2023-04-25T07:09:01.853Z,16.70
2023-04-25T07:11:29.963Z,21.42
2023-04-25T07:13:58.364Z,17.17
2023-04-25T07:16:26.562Z,20.27
2023-04-25T07:18:54.943Z,16.25
2023-04-25T07:21:23.278Z,17.95
2023-04-25T07:23:52.098Z,16.42
2023-04-25T07:26:21.626Z,12.15
2023-04-25T07:28:52.286Z,18.00
2023-04-25T07:31:20.985Z,15.93
2023-04-25T07:33:49.382Z,17.50
2023-04-25T07:36:17.586Z,20.70
2023-04-25T07:38:46.354Z,18.40
2023-04-25T07:41:14.500Z,15.63
2023-04-25T07:43:44.241Z,18.05
2023-04-25T07:46:12.626Z,21.98
2023-04-25T07:48:41.486Z,13.98
2023-04-25T07:51:09.612Z,22.33
2023-04-25T07:53:38.845Z,18.10
2023-04-25T07:56:08.052Z,15.50
2023-04-25T07:58:36.216Z,14.35
2023-04-25T08:01:06.410Z,13.80
2023-04-25T08:03:34.712Z,14.90
2023-04-25T08:06:05.781Z,18.67
2023-04-25T08:08:36.331Z,18.83
2023-04-25T08:11:04.758Z,18.60
2023-04-25T08:13:32.860Z,21.30
2023-04-25T08:16:02.011Z,16.65
2023-04-25T08:18:31.767Z,19.02
2023-04-25T08:21:00.625Z,21.70
2023-04-25T08:23:29.092Z,20.52
2023-04-25T08:25:57.451Z,17.58
2023-04-25T08:28:25.590Z,20.02
2023-04-25T08:30:54.365Z,20.30
2023-04-25T08:33:22.726Z,20.05
2023-04-25T08:35:52.606Z,18.73
2023-04-25T08:38:21.289Z,19.23
2023-04-25T08:40:52.650Z,14.48
2023-04-25T08:43:22.021Z,16.00
2023-04-25T08:45:50.528Z,15.75
2023-04-25T08:48:19.201Z,13.20
2023-04-25T08:50:51.207Z,12.05
2023-04-25T08:53:24.049Z,15.20
2023-04-25T08:55:52.856Z,14.07
2023-04-25T08:58:21.177Z,12.65
2023-04-25T09:00:49.937Z,4.55
2023-04-25T09:03:18.543Z,7.13
2023-04-25T09:05:47.125Z,7.07
2023-04-25T09:08:15.577Z,7.63
2023-04-25T09:10:45.482Z,6.18
2023-04-25T09:13:16.692Z,8.07
2023-04-25T09:15:53.149Z,3.43
2023-04-25T09:18:29.817Z,4.22
2023-04-25T09:21:04.141Z,3.80
2023-04-25T09:23:42.548Z,5.22
2023-04-25T09:26:12.527Z,6.05
2023-04-25T09:28:40.699Z,5.65
2023-04-25T09:31:12.468Z,4.65
2023-04-25T09:33:41.172Z,4.68
2023-04-25T09:36:12.075Z,4.88
2023-04-25T09:38:43.545Z,7.15
2023-04-25T09:41:13.603Z,6.47
2023-04-25T09:43:42.048Z,6.30
2023-04-25T09:46:12.166Z,6.13
2023-04-25T09:48:40.647Z,6.35
2023-04-25T09:51:10.729Z,7.72
2023-04-25T09:53:40.075Z,7.57
2023-04-25T09:56:10.396Z,5.38
2023-04-25T09:58:40.994Z,6.18
2023-04-25T10:01:10.832Z,6.45
2023-04-25T10:03:41.599Z,7.40
2023-04-25T10:06:12.021Z,6.85
2023-04-25T10:08:41.241Z,7.93
2023-04-25T10:11:10.859Z,5.20
2023-04-25T10:13:40.823Z,6.63
2023-04-25T10:16:09.457Z,4.75
2023-04-25T10:18:38.598Z,7.13
2023-04-25T10:21:07.377Z,7.10
2023-04-25T10:23:36.339Z,9.38
2023-04-25T10:26:05.100Z,8.32
2023-04-25T10:29:01.867Z,6.20
2023-04-25T10:31:32.507Z,7.78
2023-04-25T10:34:02.576Z,14.30
2023-04-25T10:36:34.780Z,6.50
2023-04-25T10:39:08.382Z,6.00
2023-04-25T10:41:49.432Z,9.57
2023-04-25T10:44:19.037Z,10.35
2023-04-25T10:46:47.904Z,8.00
2023-04-25T10:49:35.372Z,8.05
2023-04-25T10:52:20.914Z,9.43
2023-04-25T10:54:49.704Z,9.13
2023-04-25T10:57:30.394Z,7.30
2023-04-25T11:00:06.289Z,7.53
2023-04-25T11:02:36.083Z,9.35
2023-04-25T11:05:05.300Z,6.50
2023-04-25T11:07:39.910Z,7.95
2023-04-25T11:10:09.085Z,5.82
2023-04-25T11:12:37.712Z,5.38
2023-04-25T11:15:09.476Z,7.10
2023-04-25T11:17:38.161Z,10.98
2023-04-25T11:20:12.389Z,5.82
2023-04-25T11:22:42.672Z,7.70
2023-04-25T11:25:12.934Z,5.50
2023-04-25T11:27:42.616Z,4.10
2023-04-25T11:30:17.429Z,8.95
2023-04-25T11:32:46.694Z,6.68
2023-04-25T11:35:16.093Z,5.90
2023-04-25T11:37:45.442Z,7.82
2023-04-25T11:40:14.186Z,7.53
2023-04-25T11:42:46.737Z,12.02
2023-04-25T11:47:45.098Z,7.70
2023-04-25T11:50:15.132Z,4.38
2023-04-25T11:52:45.387Z,8.13
2023-04-25T11:55:16.602Z,5.35
2023-04-25T11:57:46.704Z,8.13
2023-04-25T12:00:19.149Z,8.70
2023-04-25T12:02:49.581Z,8.13
2023-04-25T12:07:50.115Z,9.57
2023-04-25T12:10:20.429Z,10.63
2023-04-25T12:12:50.096Z,10.73
2023-04-25T12:15:21.287Z,11.57
2023-04-25T12:17:50.738Z,7.40
2023-04-25T12:20:20.730Z,9.73
2023-04-25T12:22:51.590Z,9.48
2023-04-25T12:25:39.084Z,8.32
2023-04-25T12:28:15.091Z,12.38
2023-04-25T12:30:59.729Z,11.88
2023-04-25T12:33:29.328Z,9.70
2023-04-25T12:35:58.407Z,9.38
2023-04-25T12:38:28.462Z,9.18
2023-04-25T12:40:56.649Z,10.88
2023-04-25T12:43:25.567Z,6.93
2023-04-25T12:45:55.037Z,14.25
2023-04-25T12:48:25.447Z,7.85
2023-04-25T12:50:54.110Z,7.32
2023-04-25T12:53:24.625Z,11.65
2023-04-25T12:55:53.206Z,12.32
2023-04-25T12:58:22.113Z,12.13
2023-04-25T13:00:50.699Z,11.52
2023-04-25T13:03:19.817Z,8.10
2023-04-25T13:05:49.778Z,7.82
2023-04-25T13:08:18.143Z,7.57
2023-04-25T13:10:46.618Z,8.00
2023-04-25T13:13:15.081Z,8.60
2023-04-25T13:15:43.202Z,6.65
2023-04-25T13:18:12.303Z,8.43
2023-04-25T13:20:40.661Z,10.15
2023-04-25T13:23:10.849Z,12.32
2023-04-25T13:25:38.967Z,6.70
2023-04-25T13:28:07.429Z,8.82
2023-04-25T13:30:35.648Z,6.28
2023-04-25T13:33:05.231Z,8.18
2023-04-25T13:35:33.520Z,9.70
2023-04-25T13:38:02.040Z,10.90
2023-04-25T13:40:32.997Z,10.13
2023-04-25T13:43:01.563Z,8.07
2023-04-25T13:45:31.502Z,5.45
2023-04-25T13:48:01.589Z,7.20
2023-04-25T13:50:29.872Z,7.05
2023-04-25T13:52:58.356Z,8.35
2023-04-25T13:55:26.482Z,6.00
2023-04-25T13:57:56.343Z,11.43
2023-04-25T14:00:24.655Z,10.00
2023-04-25T14:02:53.224Z,11.30
2023-04-25T14:05:21.699Z,10.27
2023-04-25T14:07:50.062Z,16.00
2023-04-25T14:10:18.522Z,16.48
2023-04-25T14:12:47.167Z,12.35
2023-04-25T14:15:16.816Z,16.92
2023-04-25T14:17:46.921Z,11.27
2023-04-25T14:20:15.225Z,12.85
2023-04-25T14:22:44.680Z,12.35
2023-04-25T14:25:13.116Z,11.05
2023-04-25T14:27:41.655Z,11.82
2023-04-25T14:30:12.617Z,11.68
2023-04-25T14:32:42.683Z,10.37
2023-04-25T14:35:11.240Z,11.18
2023-04-25T14:37:40.294Z,9.23
2023-04-25T14:40:11.926Z,8.20
2023-04-25T14:42:40.726Z,11.18
2023-04-25T14:45:09.970Z,10.18
2023-04-25T14:47:38.868Z,9.38
2023-04-25T14:50:09.576Z,10.05
2023-04-25T14:52:38.146Z,7.38
2023-04-25T14:55:06.761Z,7.55
2023-04-25T14:57:35.514Z,9.45
2023-04-25T15:00:09.503Z,7.60
2023-04-25T15:02:38.609Z,8.00
2023-04-25T15:05:09.514Z,7.72
2023-04-25T15:07:38.111Z,8.50
2023-04-25T15:10:07.316Z,8.13
2023-04-25T15:12:35.708Z,7.82
2023-04-25T15:15:04.257Z,9.52
2023-04-25T15:17:32.757Z,5.95
2023-04-25T15:20:01.274Z,11.57
2023-04-25T15:22:31.978Z,10.70
2023-04-25T15:25:00.142Z,8.50
2023-04-25T15:27:29.449Z,11.95
2023-04-25T15:29:57.725Z,8.63
2023-04-25T15:32:26.484Z,10.23
2023-04-25T15:34:54.717Z,10.38
2023-04-25T15:37:23.287Z,11.10
2023-04-25T15:40:02.736Z,12.75
2023-04-25T15:42:32.043Z,10.07
2023-04-25T15:45:00.178Z,11.80
2023-04-25T15:47:28.590Z,8.95
2023-04-25T15:49:56.794Z,12.85
2023-04-25T15:52:25.206Z,10.90
2023-04-25T15:54:55.112Z,8.00
2023-04-25T15:57:24.135Z,8.27
2023-04-25T15:59:52.336Z,7.43
2023-04-25T16:02:21.018Z,7.78
2023-04-25T16:04:49.581Z,10.05
2023-04-25T16:07:18.196Z,12.07
2023-04-25T16:09:46.836Z,15.13
2023-04-25T16:12:17.434Z,12.82
2023-04-25T16:14:45.576Z,8.07
2023-04-25T16:17:14.122Z,6.55
2023-04-25T16:19:42.472Z,10.40
2023-04-25T16:22:13.250Z,4.35
2023-04-25T16:24:41.362Z,11.10
2023-04-25T16:27:10.035Z,8.88
2023-04-25T16:29:39.861Z,8.82
2023-04-25T16:32:08.358Z,6.45
2023-04-25T16:34:36.437Z,10.90
2023-04-25T16:37:05.029Z,7.35
2023-04-25T16:39:33.402Z,10.65
2023-04-25T16:42:04.096Z,13.40
2023-04-25T16:44:33.158Z,10.50
2023-04-25T16:47:03.985Z,7.43
2023-04-25T16:49:32.118Z,12.73
2023-04-25T16:52:00.583Z,10.18
2023-04-25T16:54:29.023Z,9.57
2023-04-25T16:56:58.145Z,8.15
2023-04-25T16:59:26.317Z,13.05
2023-04-25T17:01:54.875Z,13.68
2023-04-25T17:04:24.577Z,11.55
2023-04-25T17:06:53.122Z,9.77
2023-04-25T17:09:21.478Z,10.15
2023-04-25T17:11:50.077Z,11.70
2023-04-25T17:14:18.209Z,10.82
2023-04-25T17:16:47.466Z,14.85
2023-04-25T17:19:15.811Z,12.07
2023-04-25T17:21:45.749Z,11.57
2023-04-25T17:24:15.670Z,10.70
2023-04-25T17:26:44.376Z,11.60
2023-04-25T17:29:13.611Z,14.98
2023-04-25T17:31:42.627Z,11.02
2023-04-25T17:34:16.449Z,11.90
2023-04-25T17:36:46.337Z,13.43
2023-04-25T17:39:17.407Z,20.65
2023-04-25T17:41:46.337Z,12.65
2023-04-25T17:44:14.793Z,17.40
2023-04-25T17:46:43.215Z,11.60
2023-04-25T17:49:11.602Z,16.85
2023-04-25T17:51:40.072Z,16.80
2023-04-25T17:54:09.545Z,12.40
2023-04-25T17:56:38.851Z,14.35
2023-04-25T17:59:07.218Z,17.05
2023-04-25T18:01:35.948Z,15.05
2023-04-25T18:04:05.357Z,12.10
2023-04-25T18:06:34.092Z,11.75
2023-04-25T18:09:02.492Z,14.50
2023-04-25T18:11:32.254Z,12.27
2023-04-25T18:14:01.123Z,15.85
2023-04-25T18:16:29.599Z,12.93
2023-04-25T18:19:06.115Z,16.05
2023-04-25T18:21:34.808Z,19.95
2023-04-25T18:24:02.992Z,13.15
2023-04-25T18:26:32.797Z,12.48
2023-04-25T18:29:01.397Z,11.85
2023-04-25T18:31:32.055Z,13.45
2023-04-25T18:34:00.654Z,14.15
2023-04-25T18:36:29.543Z,12.20
2023-04-25T18:38:59.642Z,14.80
2023-04-25T18:41:51.584Z,12.30
2023-04-25T18:44:21.592Z,16.35
2023-04-25T18:46:49.949Z,16.27
2023-04-25T18:49:18.425Z,17.42
2023-04-25T18:51:48.704Z,23.20
2023-04-25T18:54:16.873Z,17.55
2023-04-25T18:56:46.758Z,18.58
2023-04-25T18:59:15.516Z,27.10
2023-04-25T19:01:44.036Z,22.33
2023-04-25T19:04:12.210Z,23.15
2023-04-25T19:06:41.067Z,23.73
2023-04-25T19:09:10.465Z,21.80
2023-04-25T19:11:39.298Z,30.60
2023-04-25T19:14:08.776Z,31.05
2023-04-25T19:16:39.048Z,36.05
2023-04-25T19:19:08.668Z,43.80
2023-04-25T19:21:37.476Z,44.10
2023-04-25T19:24:07.112Z,39.45
2023-04-25T19:26:35.986Z,46.60
2023-04-25T19:29:05.868Z,46.35
2023-04-25T19:31:37.697Z,42.60
2023-04-25T19:34:06.634Z,38.38
2023-04-25T19:36:35.718Z,39.08
2023-04-25T19:39:04.703Z,35.92
2023-04-25T19:41:35.162Z,36.90
2023-04-25T19:44:04.668Z,33.42
2023-04-25T19:46:33.553Z,34.78
2023-04-25T19:49:05.385Z,28.48
2023-04-25T19:51:35.548Z,42.35
2023-04-25T19:54:04.222Z,32.47
2023-04-25T19:56:32.665Z,34.15
2023-04-25T19:59:00.904Z,40.08
2023-04-25T20:01:29.424Z,41.67
2023-04-25T20:03:57.567Z,37.70
2023-04-25T20:06:27.411Z,34.67
2023-04-25T20:08:55.616Z,34.38
2023-04-25T20:11:24.043Z,33.00
2023-04-25T20:13:52.415Z,32.50
2023-04-25T20:16:21.850Z,31.67
2023-04-25T20:18:50.828Z,29.02
2023-04-25T20:21:19.772Z,34.10
2023-04-25T20:23:49.372Z,27.95
2023-04-25T20:26:17.757Z,27.77
2023-04-25T20:28:46.346Z,26.88
2023-04-25T20:31:14.882Z,28.88
2023-04-25T20:33:43.724Z,32.78
2023-04-25T20:36:12.392Z,27.92
2023-04-25T20:38:40.670Z,30.40
2023-04-25T20:41:10.816Z,28.88
2023-04-25T20:43:40.409Z,31.98
2023-04-25T20:46:09.194Z,28.90
2023-04-25T20:48:37.393Z,34.75
2023-04-25T20:51:07.285Z,31.48
2023-04-25T20:53:35.584Z,28.70
2023-04-25T20:56:04.404Z,26.58
2023-04-25T20:58:33.971Z,25.45
2023-04-25T21:01:03.073Z,31.98
2023-04-25T21:03:31.508Z,25.50
2023-04-25T21:06:00.189Z,25.27
2023-04-25T21:08:28.365Z,21.52
2023-04-25T21:10:56.841Z,19.23
2023-04-25T21:13:27.148Z,24.13
2023-04-25T21:15:57.501Z,21.17
2023-04-25T21:18:25.967Z,20.08
2023-04-25T21:20:54.486Z,18.20
2023-04-25T21:23:22.642Z,21.95
2023-04-25T21:25:53.368Z,22.52
2023-04-25T21:28:21.626Z,22.00
2023-04-25T21:30:50.052Z,21.60
2023-04-25T21:33:19.641Z,20.83
2023-04-25T21:35:48.118Z,23.60
2023-04-25T21:38:16.268Z,25.73
2023-04-25T21:40:44.909Z,23.33
2023-04-25T21:43:13.245Z,23.52
2023-04-25T21:46:05.692Z,25.63
2023-04-25T21:48:31.319Z,22.85
2023-04-25T21:51:00.213Z,24.90
2023-04-25T21:53:28.345Z,24.55
2023-04-25T21:55:57.121Z,23.63
2023-04-25T21:58:25.396Z,20.00
2023-04-25T22:00:53.945Z,26.45
2023-04-25T22:03:22.196Z,21.65
2023-04-25T22:05:52.002Z,23.38
2023-04-25T22:08:20.687Z,19.13
2023-04-25T22:10:49.219Z,17.30
2023-04-25T22:13:17.354Z,19.65
2023-04-25T22:15:45.881Z,20.52
2023-04-25T22:18:16.341Z,25.35
2023-04-25T22:20:45.084Z,17.85
2023-04-25T22:23:14.754Z,16.55
2023-04-25T22:25:43.188Z,11.82
2023-04-25T22:28:12.626Z,15.93
2023-04-25T22:30:41.045Z,15.85
2023-04-25T22:33:09.336Z,17.92
2023-04-25T22:35:37.770Z,18.10
2023-04-25T22:38:05.884Z,15.65
2023-04-25T22:40:35.696Z,12.68
2023-04-25T22:43:03.781Z,18.85
2023-04-25T22:45:32.508Z,19.02
2023-04-25T22:48:00.829Z,15.95
2023-04-25T22:50:29.266Z,15.40
2023-04-25T22:52:57.363Z,15.13
2023-04-25T22:55:26.450Z,13.38
2023-04-25T22:57:56.298Z,10.85
2023-04-25T23:00:26.222Z,20.33
2023-04-25T23:02:54.974Z,14.25
2023-04-25T23:05:24.641Z,13.10
2023-04-25T23:07:52.773Z,9.88
2023-04-25T23:10:21.255Z,11.13
2023-04-25T23:12:49.368Z,14.45
2023-04-25T23:15:20.565Z,11.93
2023-04-25T23:17:48.811Z,14.35
2023-04-25T23:20:17.626Z,12.57
2023-04-25T23:22:45.834Z,12.25
2023-04-25T23:25:14.882Z,8.82
2023-04-25T23:27:43.047Z,8.00
2023-04-25T23:30:12.316Z,14.45
2023-04-25T23:32:42.041Z,12.55
2023-04-25T23:35:11.342Z,8.98
2023-04-25T23:37:40.259Z,14.32
2023-04-25T23:40:11.916Z,11.48
2023-04-25T23:42:40.945Z,15.10
2023-04-25T23:45:10.309Z,13.30
2023-04-25T23:47:38.573Z,12.73
2023-04-25T23:50:09.740Z,14.57
2023-04-25T23:52:38.288Z,16.83
2023-04-25T23:55:07.768Z,13.07
2023-04-25T23:57:36.211Z,14.35
